sensor_id;sensor_type;location;lat;lon;timestamp;P1;durP1;ratioP1;P2;durP2;ratioP2
48263;SDS011;34086;51.076;13.722;2023-11-19T00:00:18;24.85;;;17.92;;
48263;SDS011;34086;51.076;13.722;2023-11-19T00:01:19;24.70;;;17.27;;
48263;SDS011;34086;51.076;13.722;2023-11-19T00:02:19;24.27;;;16.98;;
48263;SDS011;34086;51.076;13.722;2023-11-19T00:03:20;23.30;;;17.15;;
48263;SDS011;34086;51.076;13.722;2023-11-19T00:04:21;26.00;;;17.52;;
48263;SDS011;34086;51.076;13.722;2023-11-19T00:05:22;23.60;;;17.35;;
48263;SDS011;34086;51.076;13.722;2023-11-19T00:06:22;25.42;;;16.67;;
48263;SDS011;34086;51.076;13.722;2023-11-19T00:07:23;23.88;;;16.92;;
48263;SDS011;34086;51.076;13.722;2023-11-19T00:08:23;23.20;;;16.77;;
48263;SDS011;34086;51.076;13.722;2023-11-19T00:09:24;26.45;;;17.38;;
48263;SDS011;34086;51.076;13.722;2023-11-19T00:10:25;25.23;;;17.05;;
48263;SDS011;34086;51.076;13.722;2023-11-19T00:11:26;24.20;;;17.05;;
48263;SDS011;34086;51.076;13.722;2023-11-19T00:12:27;27.05;;;17.35;;
48263;SDS011;34086;51.076;13.722;2023-11-19T00:13:27;25.67;;;17.38;;
48263;SDS011;34086;51.076;13.722;2023-11-19T00:14:28;27.20;;;17.52;;
48263;SDS011;34086;51.076;13.722;2023-11-19T00:15:29;24.77;;;16.75;;
48263;SDS011;34086;51.076;13.722;2023-11-19T00:16:30;22.08;;;15.85;;
48263;SDS011;34086;51.076;13.722;2023-11-19T00:17:32;28.92;;;17.38;;
48263;SDS011;34086;51.076;13.722;2023-11-19T00:18:32;25.15;;;16.98;;
48263;SDS011;34086;51.076;13.722;2023-11-19T00:19:33;24.58;;;17.15;;
48263;SDS011;34086;51.076;13.722;2023-11-19T00:20:34;24.05;;;16.85;;
48263;SDS011;34086;51.076;13.722;2023-11-19T00:21:34;23.77;;;16.42;;
48263;SDS011;34086;51.076;13.722;2023-11-19T00:22:35;27.92;;;18.45;;
48263;SDS011;34086;51.076;13.722;2023-11-19T00:23:35;29.92;;;17.60;;
48263;SDS011;34086;51.076;13.722;2023-11-19T00:24:36;26.00;;;17.80;;
48263;SDS011;34086;51.076;13.722;2023-11-19T00:25:37;27.67;;;18.20;;
48263;SDS011;34086;51.076;13.722;2023-11-19T00:26:38;31.38;;;18.02;;
48263;SDS011;34086;51.076;13.722;2023-11-19T00:27:40;24.73;;;17.77;;
48263;SDS011;34086;51.076;13.722;2023-11-19T00:28:40;25.88;;;17.65;;
48263;SDS011;34086;51.076;13.722;2023-11-19T00:29:41;26.95;;;18.75;;
48263;SDS011;34086;51.076;13.722;2023-11-19T00:30:42;26.95;;;18.42;;
48263;SDS011;34086;51.076;13.722;2023-11-19T00:31:43;28.48;;;18.27;;
48263;SDS011;34086;51.076;13.722;2023-11-19T00:32:43;25.98;;;18.02;;
48263;SDS011;34086;51.076;13.722;2023-11-19T00:33:45;26.77;;;18.85;;
48263;SDS011;34086;51.076;13.722;2023-11-19T00:34:46;26.67;;;18.17;;
48263;SDS011;34086;51.076;13.722;2023-11-19T00:35:47;26.35;;;17.85;;
48263;SDS011;34086;51.076;13.722;2023-11-19T00:36:48;26.02;;;18.13;;
48263;SDS011;34086;51.076;13.722;2023-11-19T00:37:49;26.63;;;18.05;;
48263;SDS011;34086;51.076;13.722;2023-11-19T00:38:50;26.67;;;18.58;;
48263;SDS011;34086;51.076;13.722;2023-11-19T00:39:52;26.02;;;17.80;;
48263;SDS011;34086;51.076;13.722;2023-11-19T00:40:53;25.25;;;17.80;;
48263;SDS011;34086;51.076;13.722;2023-11-19T00:41:54;24.23;;;17.98;;
48263;SDS011;34086;51.076;13.722;2023-11-19T00:42:54;26.08;;;17.80;;
48263;SDS011;34086;51.076;13.722;2023-11-19T00:43:55;26.00;;;17.92;;
48263;SDS011;34086;51.076;13.722;2023-11-19T00:44:55;26.70;;;17.95;;
48263;SDS011;34086;51.076;13.722;2023-11-19T00:45:56;25.02;;;17.77;;
48263;SDS011;34086;51.076;13.722;2023-11-19T00:46:56;27.25;;;17.85;;
48263;SDS011;34086;51.076;13.722;2023-11-19T00:47:57;24.90;;;17.42;;
48263;SDS011;34086;51.076;13.722;2023-11-19T00:48:59;27.85;;;18.58;;
48263;SDS011;34086;51.076;13.722;2023-11-19T00:50:01;24.75;;;17.67;;
48263;SDS011;34086;51.076;13.722;2023-11-19T00:51:02;24.10;;;17.60;;
48263;SDS011;34086;51.076;13.722;2023-11-19T00:52:06;24.10;;;17.35;;
48263;SDS011;34086;51.076;13.722;2023-11-19T00:53:06;22.92;;;17.02;;
48263;SDS011;34086;51.076;13.722;2023-11-19T00:54:07;23.27;;;16.70;;
48263;SDS011;34086;51.076;13.722;2023-11-19T00:55:08;24.90;;;17.20;;
48263;SDS011;34086;51.076;13.722;2023-11-19T00:56:10;24.27;;;17.70;;
48263;SDS011;34086;51.076;13.722;2023-11-19T00:57:12;24.75;;;17.52;;
48263;SDS011;34086;51.076;13.722;2023-11-19T00:58:12;22.52;;;16.73;;
48263;SDS011;34086;51.076;13.722;2023-11-19T00:59:13;22.77;;;16.92;;
48263;SDS011;34086;51.076;13.722;2023-11-19T01:00:14;22.17;;;16.50;;
48263;SDS011;34086;51.076;13.722;2023-11-19T01:01:26;23.52;;;17.00;;
48263;SDS011;34086;51.076;13.722;2023-11-19T01:02:27;22.02;;;16.48;;
48263;SDS011;34086;51.076;13.722;2023-11-19T01:03:30;23.95;;;16.38;;
48263;SDS011;34086;51.076;13.722;2023-11-19T01:04:34;24.00;;;16.70;;
48263;SDS011;34086;51.076;13.722;2023-11-19T01:05:35;23.48;;;17.13;;
48263;SDS011;34086;51.076;13.722;2023-11-19T01:06:36;23.67;;;17.58;;
48263;SDS011;34086;51.076;13.722;2023-11-19T01:07:36;22.30;;;15.82;;
48263;SDS011;34086;51.076;13.722;2023-11-19T01:08:37;22.40;;;16.30;;
48263;SDS011;34086;51.076;13.722;2023-11-19T01:09:37;24.00;;;16.40;;
48263;SDS011;34086;51.076;13.722;2023-11-19T01:10:39;23.50;;;16.38;;
48263;SDS011;34086;51.076;13.722;2023-11-19T01:11:39;22.30;;;15.98;;
48263;SDS011;34086;51.076;13.722;2023-11-19T01:12:40;22.05;;;16.17;;
48263;SDS011;34086;51.076;13.722;2023-11-19T01:13:40;23.63;;;16.38;;
48263;SDS011;34086;51.076;13.722;2023-11-19T01:14:41;22.52;;;16.27;;
48263;SDS011;34086;51.076;13.722;2023-11-19T01:15:42;23.15;;;16.02;;
48263;SDS011;34086;51.076;13.722;2023-11-19T01:16:43;20.92;;;15.35;;
48263;SDS011;34086;51.076;13.722;2023-11-19T01:17:44;22.73;;;15.95;;
48263;SDS011;34086;51.076;13.722;2023-11-19T01:18:49;22.50;;;15.38;;
48263;SDS011;34086;51.076;13.722;2023-11-19T01:19:49;20.63;;;15.48;;
48263;SDS011;34086;51.076;13.722;2023-11-19T01:20:50;22.98;;;15.55;;
48263;SDS011;34086;51.076;13.722;2023-11-19T01:21:51;20.90;;;15.35;;
48263;SDS011;34086;51.076;13.722;2023-11-19T01:22:51;21.70;;;15.38;;
48263;SDS011;34086;51.076;13.722;2023-11-19T01:23:52;21.23;;;15.82;;
48263;SDS011;34086;51.076;13.722;2023-11-19T01:24:52;21.05;;;15.90;;
48263;SDS011;34086;51.076;13.722;2023-11-19T01:25:54;21.92;;;15.60;;
48263;SDS011;34086;51.076;13.722;2023-11-19T01:26:54;22.02;;;15.75;;
48263;SDS011;34086;51.076;13.722;2023-11-19T01:27:55;20.83;;;15.30;;
48263;SDS011;34086;51.076;13.722;2023-11-19T01:28:58;21.80;;;15.80;;
48263;SDS011;34086;51.076;13.722;2023-11-19T01:29:59;20.17;;;14.77;;
48263;SDS011;34086;51.076;13.722;2023-11-19T01:31:00;20.55;;;15.23;;
48263;SDS011;34086;51.076;13.722;2023-11-19T01:32:01;20.75;;;14.57;;
48263;SDS011;34086;51.076;13.722;2023-11-19T01:33:01;18.88;;;13.90;;
48263;SDS011;34086;51.076;13.722;2023-11-19T01:34:02;19.25;;;14.38;;
48263;SDS011;34086;51.076;13.722;2023-11-19T01:35:03;18.77;;;13.93;;
48263;SDS011;34086;51.076;13.722;2023-11-19T01:36:04;17.27;;;13.40;;
48263;SDS011;34086;51.076;13.722;2023-11-19T01:37:05;18.23;;;13.25;;
48263;SDS011;34086;51.076;13.722;2023-11-19T01:38:06;19.50;;;13.82;;
48263;SDS011;34086;51.076;13.722;2023-11-19T01:39:08;19.15;;;13.90;;
48263;SDS011;34086;51.076;13.722;2023-11-19T01:40:09;16.42;;;13.00;;
48263;SDS011;34086;51.076;13.722;2023-11-19T01:41:11;17.23;;;13.10;;
48263;SDS011;34086;51.076;13.722;2023-11-19T01:42:12;18.48;;;13.30;;
48263;SDS011;34086;51.076;13.722;2023-11-19T01:43:30;19.05;;;13.30;;
48263;SDS011;34086;51.076;13.722;2023-11-19T01:44:33;19.55;;;12.93;;
48263;SDS011;34086;51.076;13.722;2023-11-19T01:45:33;18.13;;;13.02;;
48263;SDS011;34086;51.076;13.722;2023-11-19T01:46:35;17.05;;;12.77;;
48263;SDS011;34086;51.076;13.722;2023-11-19T01:47:37;17.98;;;13.00;;
48263;SDS011;34086;51.076;13.722;2023-11-19T01:48:42;17.30;;;12.73;;
48263;SDS011;34086;51.076;13.722;2023-11-19T01:49:45;16.27;;;12.13;;
48263;SDS011;34086;51.076;13.722;2023-11-19T01:50:46;14.93;;;11.90;;
48263;SDS011;34086;51.076;13.722;2023-11-19T01:51:47;16.83;;;12.32;;
48263;SDS011;34086;51.076;13.722;2023-11-19T01:52:49;15.75;;;11.60;;
48263;SDS011;34086;51.076;13.722;2023-11-19T01:53:51;15.98;;;11.93;;
48263;SDS011;34086;51.076;13.722;2023-11-19T01:54:52;17.58;;;12.20;;
48263;SDS011;34086;51.076;13.722;2023-11-19T01:55:54;16.42;;;11.48;;
48263;SDS011;34086;51.076;13.722;2023-11-19T01:56:57;15.02;;;11.35;;
48263;SDS011;34086;51.076;13.722;2023-11-19T01:57:59;15.82;;;11.02;;
48263;SDS011;34086;51.076;13.722;2023-11-19T01:59:01;15.10;;;11.55;;
48263;SDS011;34086;51.076;13.722;2023-11-19T02:00:03;14.57;;;11.32;;
48263;SDS011;34086;51.076;13.722;2023-11-19T02:01:13;15.45;;;11.35;;
48263;SDS011;34086;51.076;13.722;2023-11-19T02:02:15;15.32;;;11.15;;
48263;SDS011;34086;51.076;13.722;2023-11-19T02:03:20;14.00;;;10.57;;
48263;SDS011;34086;51.076;13.722;2023-11-19T02:04:21;13.45;;;10.20;;
48263;SDS011;34086;51.076;13.722;2023-11-19T02:05:22;13.88;;;10.80;;
48263;SDS011;34086;51.076;13.722;2023-11-19T02:06:23;13.80;;;10.60;;
48263;SDS011;34086;51.076;13.722;2023-11-19T02:07:25;13.60;;;10.50;;
48263;SDS011;34086;51.076;13.722;2023-11-19T02:08:26;13.48;;;10.68;;
48263;SDS011;34086;51.076;13.722;2023-11-19T02:09:27;11.80;;;9.48;;
48263;SDS011;34086;51.076;13.722;2023-11-19T02:10:27;12.98;;;10.25;;
48263;SDS011;34086;51.076;13.722;2023-11-19T02:11:28;13.27;;;9.90;;
48263;SDS011;34086;51.076;13.722;2023-11-19T02:12:29;14.13;;;10.00;;
48263;SDS011;34086;51.076;13.722;2023-11-19T02:13:33;12.40;;;9.60;;
48263;SDS011;34086;51.076;13.722;2023-11-19T02:14:37;14.27;;;9.80;;
48263;SDS011;34086;51.076;13.722;2023-11-19T02:15:38;13.10;;;9.80;;
48263;SDS011;34086;51.076;13.722;2023-11-19T02:16:39;12.48;;;9.40;;
48263;SDS011;34086;51.076;13.722;2023-11-19T02:17:40;12.13;;;9.93;;
48263;SDS011;34086;51.076;13.722;2023-11-19T02:18:41;13.13;;;9.98;;
48263;SDS011;34086;51.076;13.722;2023-11-19T02:19:41;12.88;;;9.35;;
48263;SDS011;34086;51.076;13.722;2023-11-19T02:20:42;11.82;;;9.57;;
48263;SDS011;34086;51.076;13.722;2023-11-19T02:21:42;12.60;;;9.13;;
48263;SDS011;34086;51.076;13.722;2023-11-19T02:22:43;10.20;;;8.40;;
48263;SDS011;34086;51.076;13.722;2023-11-19T02:23:44;13.57;;;9.93;;
48263;SDS011;34086;51.076;13.722;2023-11-19T02:24:46;13.00;;;9.18;;
48263;SDS011;34086;51.076;13.722;2023-11-19T02:27:07;11.85;;;8.88;;
48263;SDS011;34086;51.076;13.722;2023-11-19T02:28:13;11.73;;;8.43;;
48263;SDS011;34086;51.076;13.722;2023-11-19T02:29:15;10.57;;;8.38;;
48263;SDS011;34086;51.076;13.722;2023-11-19T02:30:16;10.68;;;8.20;;
48263;SDS011;34086;51.076;13.722;2023-11-19T02:31:17;11.15;;;8.07;;
48263;SDS011;34086;51.076;13.722;2023-11-19T02:32:20;10.52;;;8.27;;
48263;SDS011;34086;51.076;13.722;2023-11-19T02:33:20;10.00;;;7.78;;
48263;SDS011;34086;51.076;13.722;2023-11-19T02:34:21;10.63;;;8.23;;
48263;SDS011;34086;51.076;13.722;2023-11-19T02:35:22;10.90;;;8.07;;
48263;SDS011;34086;51.076;13.722;2023-11-19T02:36:22;11.18;;;8.40;;
48263;SDS011;34086;51.076;13.722;2023-11-19T02:37:23;10.05;;;8.23;;
48263;SDS011;34086;51.076;13.722;2023-11-19T02:38:23;10.15;;;7.55;;
48263;SDS011;34086;51.076;13.722;2023-11-19T02:39:24;10.57;;;7.80;;
48263;SDS011;34086;51.076;13.722;2023-11-19T02:40:26;9.05;;;7.63;;
48263;SDS011;34086;51.076;13.722;2023-11-19T02:41:27;8.73;;;6.95;;
48263;SDS011;34086;51.076;13.722;2023-11-19T02:42:28;9.95;;;7.25;;
48263;SDS011;34086;51.076;13.722;2023-11-19T02:43:29;9.60;;;7.10;;
48263;SDS011;34086;51.076;13.722;2023-11-19T02:44:31;9.05;;;6.68;;
48263;SDS011;34086;51.076;13.722;2023-11-19T02:45:32;8.63;;;6.80;;
48263;SDS011;34086;51.076;13.722;2023-11-19T02:46:32;9.23;;;6.30;;
48263;SDS011;34086;51.076;13.722;2023-11-19T02:47:33;7.35;;;6.13;;
48263;SDS011;34086;51.076;13.722;2023-11-19T02:48:34;8.02;;;6.22;;
48263;SDS011;34086;51.076;13.722;2023-11-19T02:49:35;7.63;;;6.30;;
48263;SDS011;34086;51.076;13.722;2023-11-19T02:50:37;8.23;;;6.35;;
48263;SDS011;34086;51.076;13.722;2023-11-19T02:51:37;9.05;;;6.63;;
48263;SDS011;34086;51.076;13.722;2023-11-19T02:52:39;10.55;;;7.00;;
48263;SDS011;34086;51.076;13.722;2023-11-19T02:53:42;9.32;;;6.40;;
48263;SDS011;34086;51.076;13.722;2023-11-19T02:54:44;7.90;;;6.13;;
48263;SDS011;34086;51.076;13.722;2023-11-19T02:55:45;7.82;;;6.30;;
48263;SDS011;34086;51.076;13.722;2023-11-19T02:56:49;6.97;;;5.80;;
48263;SDS011;34086;51.076;13.722;2023-11-19T02:57:55;9.50;;;6.68;;
48263;SDS011;34086;51.076;13.722;2023-11-19T02:58:59;7.78;;;6.07;;
48263;SDS011;34086;51.076;13.722;2023-11-19T02:59:59;7.50;;;5.80;;
48263;SDS011;34086;51.076;13.722;2023-11-19T03:01:00;7.80;;;5.63;;
48263;SDS011;34086;51.076;13.722;2023-11-19T03:02:10;9.52;;;6.15;;
48263;SDS011;34086;51.076;13.722;2023-11-19T03:03:11;7.60;;;5.65;;
48263;SDS011;34086;51.076;13.722;2023-11-19T03:04:20;6.65;;;5.55;;
48263;SDS011;34086;51.076;13.722;2023-11-19T03:05:23;6.97;;;5.65;;
48263;SDS011;34086;51.076;13.722;2023-11-19T03:06:24;7.90;;;6.00;;
48263;SDS011;34086;51.076;13.722;2023-11-19T03:07:25;7.25;;;5.70;;
48263;SDS011;34086;51.076;13.722;2023-11-19T03:08:25;7.28;;;5.40;;
48263;SDS011;34086;51.076;13.722;2023-11-19T03:09:26;6.28;;;5.38;;
48263;SDS011;34086;51.076;13.722;2023-11-19T03:10:26;9.30;;;5.55;;
48263;SDS011;34086;51.076;13.722;2023-11-19T03:11:29;7.22;;;5.65;;
48263;SDS011;34086;51.076;13.722;2023-11-19T03:12:29;6.60;;;5.43;;
48263;SDS011;34086;51.076;13.722;2023-11-19T03:13:30;6.90;;;5.63;;
48263;SDS011;34086;51.076;13.722;2023-11-19T03:14:31;6.38;;;5.30;;
48263;SDS011;34086;51.076;13.722;2023-11-19T03:15:34;6.15;;;5.35;;
48263;SDS011;34086;51.076;13.722;2023-11-19T03:16:35;5.97;;;4.80;;
48263;SDS011;34086;51.076;13.722;2023-11-19T03:17:41;6.68;;;5.10;;
48263;SDS011;34086;51.076;13.722;2023-11-19T03:18:45;5.75;;;5.00;;
48263;SDS011;34086;51.076;13.722;2023-11-19T03:19:46;7.55;;;5.22;;
48263;SDS011;34086;51.076;13.722;2023-11-19T03:20:48;7.70;;;5.00;;
48263;SDS011;34086;51.076;13.722;2023-11-19T03:21:49;6.00;;;5.15;;
48263;SDS011;34086;51.076;13.722;2023-11-19T03:22:50;6.80;;;5.13;;
48263;SDS011;34086;51.076;13.722;2023-11-19T03:23:51;7.55;;;5.20;;
48263;SDS011;34086;51.076;13.722;2023-11-19T03:24:52;6.18;;;5.30;;
48263;SDS011;34086;51.076;13.722;2023-11-19T03:25:52;6.82;;;5.10;;
48263;SDS011;34086;51.076;13.722;2023-11-19T03:26:55;5.90;;;4.90;;
48263;SDS011;34086;51.076;13.722;2023-11-19T03:27:56;5.85;;;5.03;;
48263;SDS011;34086;51.076;13.722;2023-11-19T03:28:58;5.65;;;4.90;;
48263;SDS011;34086;51.076;13.722;2023-11-19T03:29:59;7.32;;;5.22;;
48263;SDS011;34086;51.076;13.722;2023-11-19T03:30:59;5.97;;;5.05;;
48263;SDS011;34086;51.076;13.722;2023-11-19T03:32:00;5.93;;;4.78;;
48263;SDS011;34086;51.076;13.722;2023-11-19T03:33:01;6.07;;;4.97;;
48263;SDS011;34086;51.076;13.722;2023-11-19T03:34:02;6.40;;;5.07;;
48263;SDS011;34086;51.076;13.722;2023-11-19T03:35:03;5.68;;;4.68;;
48263;SDS011;34086;51.076;13.722;2023-11-19T03:36:04;6.13;;;4.72;;
48263;SDS011;34086;51.076;13.722;2023-11-19T03:37:06;6.07;;;4.90;;
48263;SDS011;34086;51.076;13.722;2023-11-19T03:38:07;5.60;;;4.50;;
48263;SDS011;34086;51.076;13.722;2023-11-19T03:39:08;5.20;;;4.35;;
48263;SDS011;34086;51.076;13.722;2023-11-19T03:40:09;5.43;;;4.60;;
48263;SDS011;34086;51.076;13.722;2023-11-19T03:41:13;5.20;;;4.70;;
48263;SDS011;34086;51.076;13.722;2023-11-19T03:42:14;5.10;;;4.50;;
48263;SDS011;34086;51.076;13.722;2023-11-19T03:43:14;5.20;;;4.40;;
48263;SDS011;34086;51.076;13.722;2023-11-19T03:44:15;6.82;;;4.90;;
48263;SDS011;34086;51.076;13.722;2023-11-19T03:45:16;5.38;;;4.50;;
48263;SDS011;34086;51.076;13.722;2023-11-19T03:46:17;6.07;;;4.40;;
48263;SDS011;34086;51.076;13.722;2023-11-19T03:47:22;5.60;;;4.63;;
48263;SDS011;34086;51.076;13.722;2023-11-19T03:48:23;4.85;;;4.35;;
48263;SDS011;34086;51.076;13.722;2023-11-19T03:49:23;5.03;;;4.30;;
48263;SDS011;34086;51.076;13.722;2023-11-19T03:50:24;5.05;;;4.28;;
48263;SDS011;34086;51.076;13.722;2023-11-19T03:51:25;5.72;;;4.63;;
48263;SDS011;34086;51.076;13.722;2023-11-19T03:52:26;4.63;;;4.07;;
48263;SDS011;34086;51.076;13.722;2023-11-19T03:53:30;5.18;;;4.20;;
48263;SDS011;34086;51.076;13.722;2023-11-19T03:54:31;5.60;;;4.18;;
48263;SDS011;34086;51.076;13.722;2023-11-19T03:55:32;6.32;;;4.80;;
48263;SDS011;34086;51.076;13.722;2023-11-19T03:56:33;5.35;;;4.55;;
48263;SDS011;34086;51.076;13.722;2023-11-19T03:57:34;5.35;;;4.28;;
48263;SDS011;34086;51.076;13.722;2023-11-19T03:58:35;6.95;;;4.60;;
48263;SDS011;34086;51.076;13.722;2023-11-19T03:59:36;6.65;;;4.47;;
48263;SDS011;34086;51.076;13.722;2023-11-19T04:00:36;5.40;;;4.60;;
48263;SDS011;34086;51.076;13.722;2023-11-19T04:01:37;7.28;;;4.78;;
48263;SDS011;34086;51.076;13.722;2023-11-19T04:02:37;5.28;;;4.30;;
48263;SDS011;34086;51.076;13.722;2023-11-19T04:03:38;5.82;;;4.95;;
48263;SDS011;34086;51.076;13.722;2023-11-19T04:04:39;5.50;;;4.90;;
48263;SDS011;34086;51.076;13.722;2023-11-19T04:05:39;6.32;;;5.22;;
48263;SDS011;34086;51.076;13.722;2023-11-19T04:06:40;6.78;;;5.10;;
48263;SDS011;34086;51.076;13.722;2023-11-19T04:07:41;5.72;;;4.90;;
48263;SDS011;34086;51.076;13.722;2023-11-19T04:08:41;6.57;;;5.28;;
48263;SDS011;34086;51.076;13.722;2023-11-19T04:09:42;6.68;;;5.22;;
48263;SDS011;34086;51.076;13.722;2023-11-19T04:10:43;6.75;;;5.30;;
48263;SDS011;34086;51.076;13.722;2023-11-19T04:11:43;6.88;;;5.38;;
48263;SDS011;34086;51.076;13.722;2023-11-19T04:12:46;8.93;;;7.13;;
48263;SDS011;34086;51.076;13.722;2023-11-19T04:13:47;8.15;;;7.00;;
48263;SDS011;34086;51.076;13.722;2023-11-19T04:14:48;28.70;;;21.52;;
48263;SDS011;34086;51.076;13.722;2023-11-19T04:15:49;18.15;;;12.35;;
48263;SDS011;34086;51.076;13.722;2023-11-19T04:16:50;15.65;;;11.25;;
48263;SDS011;34086;51.076;13.722;2023-11-19T04:17:51;7.60;;;5.88;;
48263;SDS011;34086;51.076;13.722;2023-11-19T04:18:51;7.35;;;5.75;;
48263;SDS011;34086;51.076;13.722;2023-11-19T04:19:52;7.38;;;5.65;;
48263;SDS011;34086;51.076;13.722;2023-11-19T04:20:53;8.13;;;6.40;;
48263;SDS011;34086;51.076;13.722;2023-11-19T04:21:59;7.00;;;6.10;;
48263;SDS011;34086;51.076;13.722;2023-11-19T04:23:00;6.95;;;6.00;;
48263;SDS011;34086;51.076;13.722;2023-11-19T04:24:01;8.93;;;6.30;;
48263;SDS011;34086;51.076;13.722;2023-11-19T04:25:01;7.18;;;6.00;;
48263;SDS011;34086;51.076;13.722;2023-11-19T04:26:02;8.20;;;6.40;;
48263;SDS011;34086;51.076;13.722;2023-11-19T04:27:04;8.00;;;6.43;;
48263;SDS011;34086;51.076;13.722;2023-11-19T04:28:06;9.57;;;6.50;;
48263;SDS011;34086;51.076;13.722;2023-11-19T04:29:08;9.38;;;6.72;;
48263;SDS011;34086;51.076;13.722;2023-11-19T04:30:09;9.65;;;6.88;;
48263;SDS011;34086;51.076;13.722;2023-11-19T04:31:11;8.77;;;6.85;;
48263;SDS011;34086;51.076;13.722;2023-11-19T04:32:11;10.38;;;7.22;;
48263;SDS011;34086;51.076;13.722;2023-11-19T04:33:12;9.57;;;7.45;;
48263;SDS011;34086;51.076;13.722;2023-11-19T04:34:12;10.88;;;7.22;;
48263;SDS011;34086;51.076;13.722;2023-11-19T04:35:13;10.57;;;7.47;;
48263;SDS011;34086;51.076;13.722;2023-11-19T04:36:13;10.50;;;7.60;;
48263;SDS011;34086;51.076;13.722;2023-11-19T04:37:19;10.43;;;7.63;;
48263;SDS011;34086;51.076;13.722;2023-11-19T04:38:19;12.25;;;8.38;;
48263;SDS011;34086;51.076;13.722;2023-11-19T04:39:20;12.27;;;7.95;;
48263;SDS011;34086;51.076;13.722;2023-11-19T04:40:21;12.98;;;8.93;;
48263;SDS011;34086;51.076;13.722;2023-11-19T04:41:22;13.90;;;8.88;;
48263;SDS011;34086;51.076;13.722;2023-11-19T04:42:23;13.40;;;9.10;;
48263;SDS011;34086;51.076;13.722;2023-11-19T04:43:24;13.82;;;9.10;;
48263;SDS011;34086;51.076;13.722;2023-11-19T04:44:24;12.90;;;8.82;;
48263;SDS011;34086;51.076;13.722;2023-11-19T04:45:25;11.52;;;9.25;;
48263;SDS011;34086;51.076;13.722;2023-11-19T04:46:25;12.65;;;8.85;;
48263;SDS011;34086;51.076;13.722;2023-11-19T04:47:26;12.40;;;8.93;;
48263;SDS011;34086;51.076;13.722;2023-11-19T04:48:27;12.45;;;9.20;;
48263;SDS011;34086;51.076;13.722;2023-11-19T04:49:27;13.60;;;9.65;;
48263;SDS011;34086;51.076;13.722;2023-11-19T04:50:28;11.30;;;9.32;;
48263;SDS011;34086;51.076;13.722;2023-11-19T04:51:28;13.70;;;9.00;;
48263;SDS011;34086;51.076;13.722;2023-11-19T04:52:29;11.85;;;8.65;;
48263;SDS011;34086;51.076;13.722;2023-11-19T04:53:30;15.00;;;9.15;;
48263;SDS011;34086;51.076;13.722;2023-11-19T04:54:30;13.80;;;9.68;;
48263;SDS011;34086;51.076;13.722;2023-11-19T04:55:31;13.98;;;9.80;;
48263;SDS011;34086;51.076;13.722;2023-11-19T04:56:31;10.55;;;8.55;;
48263;SDS011;34086;51.076;13.722;2023-11-19T04:57:32;13.25;;;9.45;;
48263;SDS011;34086;51.076;13.722;2023-11-19T04:58:32;13.05;;;9.68;;
48263;SDS011;34086;51.076;13.722;2023-11-19T04:59:34;12.40;;;9.27;;
48263;SDS011;34086;51.076;13.722;2023-11-19T05:00:34;12.27;;;9.02;;
48263;SDS011;34086;51.076;13.722;2023-11-19T05:01:35;13.30;;;9.13;;
48263;SDS011;34086;51.076;13.722;2023-11-19T05:02:36;12.57;;;9.20;;
48263;SDS011;34086;51.076;13.722;2023-11-19T05:03:37;11.27;;;8.77;;
48263;SDS011;34086;51.076;13.722;2023-11-19T05:04:37;13.88;;;8.70;;
48263;SDS011;34086;51.076;13.722;2023-11-19T05:05:43;13.68;;;9.75;;
48263;SDS011;34086;51.076;13.722;2023-11-19T05:06:43;12.07;;;9.20;;
48263;SDS011;34086;51.076;13.722;2023-11-19T05:07:44;12.35;;;9.40;;
48263;SDS011;34086;51.076;13.722;2023-11-19T05:08:44;11.32;;;8.82;;
48263;SDS011;34086;51.076;13.722;2023-11-19T05:09:45;13.30;;;9.40;;
48263;SDS011;34086;51.076;13.722;2023-11-19T05:10:46;12.63;;;9.13;;
48263;SDS011;34086;51.076;13.722;2023-11-19T05:11:47;13.25;;;9.43;;
48263;SDS011;34086;51.076;13.722;2023-11-19T05:12:48;12.45;;;9.20;;
48263;SDS011;34086;51.076;13.722;2023-11-19T05:13:51;13.60;;;9.05;;
48263;SDS011;34086;51.076;13.722;2023-11-19T05:14:52;13.02;;;9.43;;
48263;SDS011;34086;51.076;13.722;2023-11-19T05:15:52;12.63;;;9.23;;
48263;SDS011;34086;51.076;13.722;2023-11-19T05:16:53;13.77;;;9.20;;
48263;SDS011;34086;51.076;13.722;2023-11-19T05:17:54;14.93;;;9.05;;
48263;SDS011;34086;51.076;13.722;2023-11-19T05:18:54;12.77;;;9.02;;
48263;SDS011;34086;51.076;13.722;2023-11-19T05:19:55;14.32;;;10.07;;
48263;SDS011;34086;51.076;13.722;2023-11-19T05:20:55;11.27;;;9.23;;
48263;SDS011;34086;51.076;13.722;2023-11-19T05:21:56;11.50;;;9.13;;
48263;SDS011;34086;51.076;13.722;2023-11-19T05:22:57;11.60;;;9.25;;
48263;SDS011;34086;51.076;13.722;2023-11-19T05:24:00;10.65;;;8.50;;
48263;SDS011;34086;51.076;13.722;2023-11-19T05:25:00;12.50;;;8.93;;
48263;SDS011;34086;51.076;13.722;2023-11-19T05:26:03;12.82;;;9.38;;
48263;SDS011;34086;51.076;13.722;2023-11-19T05:27:04;11.73;;;9.30;;
48263;SDS011;34086;51.076;13.722;2023-11-19T05:28:04;11.52;;;8.85;;
48263;SDS011;34086;51.076;13.722;2023-11-19T05:29:05;12.82;;;9.48;;
48263;SDS011;34086;51.076;13.722;2023-11-19T05:30:05;11.95;;;9.23;;
48263;SDS011;34086;51.076;13.722;2023-11-19T05:31:13;12.15;;;9.18;;
48263;SDS011;34086;51.076;13.722;2023-11-19T05:32:13;12.30;;;9.10;;
48263;SDS011;34086;51.076;13.722;2023-11-19T05:33:14;12.00;;;8.88;;
48263;SDS011;34086;51.076;13.722;2023-11-19T05:34:14;12.85;;;9.50;;
48263;SDS011;34086;51.076;13.722;2023-11-19T05:35:15;11.07;;;8.70;;
48263;SDS011;34086;51.076;13.722;2023-11-19T05:36:16;11.73;;;9.02;;
48263;SDS011;34086;51.076;13.722;2023-11-19T05:37:17;10.88;;;9.07;;
48263;SDS011;34086;51.076;13.722;2023-11-19T05:38:18;12.63;;;9.48;;
48263;SDS011;34086;51.076;13.722;2023-11-19T05:39:19;11.68;;;9.50;;
48263;SDS011;34086;51.076;13.722;2023-11-19T05:40:20;11.65;;;9.52;;
48263;SDS011;34086;51.076;13.722;2023-11-19T05:41:20;11.70;;;9.40;;
48263;SDS011;34086;51.076;13.722;2023-11-19T05:42:21;12.55;;;9.60;;
48263;SDS011;34086;51.076;13.722;2023-11-19T05:43:22;13.13;;;9.68;;
48263;SDS011;34086;51.076;13.722;2023-11-19T05:44:22;11.93;;;9.35;;
48263;SDS011;34086;51.076;13.722;2023-11-19T05:45:23;9.95;;;8.65;;
48263;SDS011;34086;51.076;13.722;2023-11-19T05:46:24;11.70;;;9.10;;
48263;SDS011;34086;51.076;13.722;2023-11-19T05:47:27;12.52;;;9.43;;
48263;SDS011;34086;51.076;13.722;2023-11-19T05:48:27;11.77;;;9.30;;
48263;SDS011;34086;51.076;13.722;2023-11-19T05:49:29;13.18;;;10.20;;
48263;SDS011;34086;51.076;13.722;2023-11-19T05:50:29;12.40;;;9.90;;
48263;SDS011;34086;51.076;13.722;2023-11-19T05:51:30;13.65;;;10.10;;
48263;SDS011;34086;51.076;13.722;2023-11-19T05:52:30;13.68;;;9.85;;
48263;SDS011;34086;51.076;13.722;2023-11-19T05:53:33;13.02;;;10.13;;
48263;SDS011;34086;51.076;13.722;2023-11-19T05:54:34;12.57;;;10.10;;
48263;SDS011;34086;51.076;13.722;2023-11-19T05:55:37;13.55;;;10.38;;
48263;SDS011;34086;51.076;13.722;2023-11-19T05:56:47;13.48;;;10.40;;
48263;SDS011;34086;51.076;13.722;2023-11-19T05:57:49;13.82;;;10.73;;
48263;SDS011;34086;51.076;13.722;2023-11-19T05:58:51;14.60;;;10.55;;
48263;SDS011;34086;51.076;13.722;2023-11-19T05:59:52;16.35;;;10.82;;